Time;durP1;ratioP1;P1;durP2;ratioP2;P2;SDS_P1;SDS_P2;PMS_P1;PMS_P2;Temp;Humidity;BMP_temperature;BMP_pressure;BME280_temperature;BME280_humidity;BME280_pressure;Samples;Min_cycle;Max_cycle;Signal;HPM_P1;HPM_P2
2024/03/03 00:01:28;;;;;;;8.63;4.50;;;10.20;99.90;;;;;;5001984;28;20117;-49
2024/03/03 00:03:54;;;;;;;9.45;4.32;;;10.20;99.90;;;;;;5001182;28;20385;-51
2024/03/03 00:06:19;;;;;;;9.77;3.95;;;10.20;99.90;;;;;;5003113;28;20057;-49
2024/03/03 00:08:45;;;;;;;8.30;4.43;;;10.20;99.90;;;;;;5000727;28;20034;-48
2024/03/03 00:11:10;;;;;;;7.47;4.28;;;10.10;99.90;;;;;;5000998;28;20033;-48
2024/03/03 00:13:36;;;;;;;9.63;4.00;;;10.10;99.90;;;;;;5017243;23;20203;-53
2024/03/03 00:16:04;;;;;;;6.97;3.67;;;10.10;99.90;;;;;;5031297;28;20049;-53
2024/03/03 00:18:29;;;;;;;7.63;3.92;;;10.10;99.90;;;;;;5032641;28;20060;-56
2024/03/03 00:20:55;;;;;;;10.18;4.80;;;10.10;99.90;;;;;;5032360;28;20061;-54
2024/03/03 00:23:20;;;;;;;7.07;3.90;;;10.10;99.90;;;;;;5014370;28;20021;-54
2024/03/03 00:25:46;;;;;;;7.65;4.07;;;10.10;99.90;;;;;;5031788;28;20025;-55
2024/03/03 00:28:11;;;;;;;10.65;4.15;;;10.10;99.90;;;;;;5031289;28;20025;-55
2024/03/03 00:30:37;;;;;;;8.70;4.20;;;10.10;99.90;;;;;;5032438;28;20045;-53
2024/03/03 00:33:03;;;;;;;8.20;4.35;;;10.10;99.90;;;;;;5032056;28;20037;-54
2024/03/03 00:35:28;;;;;;;5.95;3.42;;;10.00;99.90;;;;;;5032114;28;20030;-53
2024/03/03 00:37:54;;;;;;;8.73;4.45;;;10.00;99.90;;;;;;5032042;28;20076;-55
2024/03/03 00:40:19;;;;;;;6.70;3.70;;;10.00;99.90;;;;;;5032050;28;20472;-56
2024/03/03 00:42:45;;;;;;;7.57;4.20;;;10.00;99.90;;;;;;5032064;28;20025;-54
2024/03/03 00:45:11;;;;;;;6.40;3.85;;;10.00;99.90;;;;;;5032259;28;20029;-58
2024/03/03 00:47:37;;;;;;;6.85;3.67;;;10.00;99.90;;;;;;5032281;28;20057;-53
2024/03/03 00:50:03;;;;;;;11.10;4.38;;;9.90;99.90;;;;;;5031992;28;20061;-57
2024/03/03 00:52:28;;;;;;;9.95;4.38;;;9.90;99.90;;;;;;5031775;28;20033;-53
2024/03/03 00:54:54;;;;;;;9.30;4.20;;;9.80;99.90;;;;;;5031475;28;20033;-55
2024/03/03 00:57:20;;;;;;;11.30;4.35;;;9.70;99.90;;;;;;5014208;28;20056;-54
2024/03/03 00:59:45;;;;;;;8.52;4.32;;;9.70;99.90;;;;;;5031878;28;20515;-53
2024/03/03 01:02:11;;;;;;;10.52;4.55;;;9.80;99.90;;;;;;5031515;28;20063;-56
2024/03/03 01:04:36;;;;;;;10.32;4.82;;;9.80;99.90;;;;;;5031701;28;20061;-56
2024/03/03 01:07:02;;;;;;;8.50;4.65;;;9.70;99.90;;;;;;5031510;28;20112;-55
2024/03/03 01:09:29;;;;;;;7.60;4.43;;;9.70;99.90;;;;;;5031813;28;20041;-54
2024/03/03 01:11:54;;;;;;;8.48;3.78;;;9.60;99.90;;;;;;5031670;28;20022;-54
2024/03/03 01:14:22;;;;;;;7.95;3.58;;;9.60;99.90;;;;;;5031659;28;20529;-54
2024/03/03 01:16:48;;;;;;;6.53;3.38;;;9.50;99.90;;;;;;5031759;28;20037;-54
2024/03/03 01:19:13;;;;;;;8.15;4.15;;;9.40;99.90;;;;;;5031385;28;20557;-55
2024/03/03 01:21:42;;;;;;;6.20;3.72;;;9.40;99.90;;;;;;5031604;28;20034;-53
2024/03/03 01:24:07;;;;;;;8.02;3.80;;;9.40;99.90;;;;;;5031377;28;20025;-52
2024/03/03 01:26:35;;;;;;;7.70;4.40;;;9.30;99.90;;;;;;5013713;28;20022;-53
2024/03/03 01:29:00;;;;;;;9.05;4.10;;;9.20;99.90;;;;;;5031295;28;20060;-55
2024/03/03 01:31:26;;;;;;;7.72;3.55;;;9.20;99.90;;;;;;5031225;28;20053;-54
2024/03/03 01:33:51;;;;;;;8.48;3.88;;;9.20;99.90;;;;;;5013334;28;20064;-53
2024/03/03 01:36:17;;;;;;;7.32;3.15;;;9.30;99.90;;;;;;5031149;28;20136;-55
2024/03/03 01:38:42;;;;;;;7.40;3.70;;;9.30;99.90;;;;;;5030952;28;20475;-55
2024/03/03 01:41:08;;;;;;;7.35;4.10;;;9.30;99.90;;;;;;5030770;28;20036;-53
2024/03/03 01:43:34;;;;;;;7.28;3.75;;;9.30;99.90;;;;;;5031302;28;20036;-54
2024/03/03 01:46:00;;;;;;;6.70;3.50;;;9.20;99.90;;;;;;5031090;28;20495;-56
2024/03/03 01:48:25;;;;;;;7.90;4.10;;;9.30;99.90;;;;;;5030937;28;20030;-53
2024/03/03 01:50:52;;;;;;;12.13;4.18;;;9.30;99.90;;;;;;5031237;28;20075;-54
2024/03/03 01:53:19;;;;;;;7.40;3.45;;;9.20;99.90;;;;;;5031162;28;20033;-53
2024/03/03 01:55:45;;;;;;;8.00;4.07;;;9.30;99.90;;;;;;5030974;28;20037;-54
2024/03/03 01:58:15;;;;;;;8.30;4.30;;;9.30;99.90;;;;;;5030887;28;20032;-54
2024/03/03 02:00:40;;;;;;;7.47;3.13;;;9.30;99.90;;;;;;5030588;28;20025;-53
2024/03/03 02:03:08;;;;;;;7.13;3.97;;;9.30;99.90;;;;;;5030918;28;20037;-52
2024/03/03 02:05:37;;;;;;;8.55;3.65;;;9.30;99.90;;;;;;5030846;28;20096;-55
2024/03/03 02:08:04;;;;;;;10.25;4.15;;;9.20;99.90;;;;;;5030896;28;20064;-55
2024/03/03 02:10:32;;;;;;;7.13;3.83;;;9.10;99.90;;;;;;5030904;28;20398;-53
2024/03/03 02:12:57;;;;;;;10.10;4.43;;;9.00;99.90;;;;;;5030586;28;20037;-53
2024/03/03 02:15:23;;;;;;;8.30;4.40;;;9.00;99.90;;;;;;5030539;28;20033;-56
2024/03/03 02:17:50;;;;;;;8.70;4.55;;;8.90;99.90;;;;;;5031056;28;20028;-56
2024/03/03 02:20:15;;;;;;;11.55;4.40;;;8.90;99.90;;;;;;5030790;28;20029;-55
2024/03/03 02:22:41;;;;;;;11.00;5.43;;;8.80;99.90;;;;;;5030636;28;20028;-56
2024/03/03 02:25:08;;;;;;;14.05;5.03;;;8.80;99.90;;;;;;5030835;28;20037;-53
2024/03/03 02:27:36;;;;;;;11.38;5.20;;;8.80;99.90;;;;;;5030995;28;20032;-53
2024/03/03 02:30:03;;;;;;;12.10;4.72;;;8.70;99.90;;;;;;5031226;28;20079;-52
2024/03/03 02:32:29;;;;;;;10.60;5.28;;;8.60;99.90;;;;;;5031106;28;20047;-53
2024/03/03 02:34:55;;;;;;;16.95;5.00;;;8.60;99.90;;;;;;5030692;28;20032;-53
2024/03/03 02:37:21;;;;;;;13.57;5.25;;;8.60;99.90;;;;;;5030884;28;20025;-56
2024/03/03 02:39:46;;;;;;;11.10;5.45;;;8.60;99.90;;;;;;5031097;28;20100;-55
2024/03/03 02:42:12;;;;;;;12.77;5.78;;;8.50;99.90;;;;;;5030626;28;20025;-55
2024/03/03 02:44:38;;;;;;;9.57;5.60;;;8.50;99.90;;;;;;5031010;28;20038;-53
2024/03/03 02:47:03;;;;;;;12.30;5.75;;;8.50;99.90;;;;;;5030938;28;20128;-55
2024/03/03 02:49:29;;;;;;;12.52;5.78;;;8.50;99.90;;;;;;5031389;28;20029;-53
2024/03/03 02:51:55;;;;;;;13.30;6.07;;;8.50;99.90;;;;;;5032043;28;20029;-56
2024/03/03 02:54:22;;;;;;;15.35;6.22;;;8.50;99.90;;;;;;5034208;28;20039;-54
2024/03/03 02:56:47;;;;;;;11.95;6.28;;;8.50;99.90;;;;;;5034189;28;20033;-53
2024/03/03 02:59:13;;;;;;;12.07;6.47;;;8.50;99.90;;;;;;5034080;28;20104;-53
2024/03/03 03:01:38;;;;;;;13.48;6.70;;;8.50;99.90;;;;;;5034165;28;20041;-52
2024/03/03 03:04:04;;;;;;;13.75;5.80;;;8.60;99.90;;;;;;5034040;28;20068;-56
2024/03/03 03:06:29;;;;;;;11.40;6.18;;;8.60;99.90;;;;;;5016356;28;20060;-53
2024/03/03 03:08:55;;;;;;;14.27;6.40;;;8.60;99.90;;;;;;5033971;28;20052;-53
2024/03/03 03:11:20;;;;;;;11.70;5.55;;;8.60;99.90;;;;;;5033984;28;20029;-54
2024/03/03 03:13:47;;;;;;;10.40;5.90;;;8.70;99.90;;;;;;5033587;28;20025;-56
2024/03/03 03:16:12;;;;;;;12.02;5.97;;;8.70;99.90;;;;;;5033304;28;20523;-55
2024/03/03 03:18:38;;;;;;;13.18;6.55;;;8.60;99.90;;;;;;5033692;28;20021;-53
2024/03/03 03:21:06;;;;;;;13.20;5.82;;;8.60;99.90;;;;;;5033489;28;20124;-53
2024/03/03 03:23:32;;;;;;;12.77;6.03;;;8.50;99.90;;;;;;5033620;28;20073;-52
2024/03/03 03:25:58;;;;;;;11.35;6.15;;;8.60;99.90;;;;;;5033499;28;20476;-55
2024/03/03 03:28:23;;;;;;;10.35;5.63;;;8.60;99.90;;;;;;5033684;28;20021;-54
2024/03/03 03:30:49;;;;;;;13.82;6.60;;;8.50;99.90;;;;;;5033272;28;20025;-56
2024/03/03 03:33:15;;;;;;;12.63;6.43;;;8.50;99.90;;;;;;5033345;28;20106;-57
2024/03/03 03:35:41;;;;;;;13.27;7.20;;;8.50;99.90;;;;;;5033233;28;20519;-55
2024/03/03 03:38:07;;;;;;;13.27;6.07;;;8.50;99.90;;;;;;5033287;28;20029;-53
2024/03/03 03:40:33;;;;;;;13.10;6.53;;;8.50;99.90;;;;;;5033319;28;20021;-57
2024/03/03 03:42:58;;;;;;;11.57;6.32;;;8.50;99.90;;;;;;5033186;28;20585;-57
2024/03/03 03:45:24;;;;;;;15.23;7.10;;;8.40;99.90;;;;;;5033157;28;20037;-56
2024/03/03 03:47:50;;;;;;;13.75;7.05;;;8.40;99.90;;;;;;5033219;28;20072;-54
2024/03/03 03:50:16;;;;;;;16.17;7.38;;;8.40;99.90;;;;;;5033485;28;20820;-54
2024/03/03 03:52:42;;;;;;;16.80;6.75;;;8.40;99.90;;;;;;5033379;28;20049;-52
2024/03/03 03:55:08;;;;;;;15.93;7.60;;;8.30;99.90;;;;;;5033547;28;20026;-53
2024/03/03 03:57:34;;;;;;;17.38;7.57;;;8.30;99.90;;;;;;5033069;28;20029;-54
2024/03/03 03:59:59;;;;;;;12.27;6.57;;;8.30;99.90;;;;;;5032874;28;20101;-54
2024/03/03 04:02:26;;;;;;;17.90;7.18;;;8.30;99.90;;;;;;5032896;28;20034;-55
2024/03/03 04:04:52;;;;;;;15.80;6.95;;;8.30;99.90;;;;;;5032389;28;20048;-53
2024/03/03 04:07:17;;;;;;;16.50;7.35;;;8.30;99.90;;;;;;5032787;28;20045;-54
2024/03/03 04:09:43;;;;;;;12.75;7.28;;;8.30;99.90;;;;;;5032949;28;20033;-54
2024/03/03 04:12:09;;;;;;;12.73;7.05;;;8.30;99.90;;;;;;5032972;28;20022;-53
2024/03/03 04:14:34;;;;;;;14.93;7.20;;;8.20;99.90;;;;;;5032878;28;20072;-54
2024/03/03 04:17:00;;;;;;;17.73;7.43;;;8.20;99.90;;;;;;5032427;28;20033;-53
2024/03/03 04:19:26;;;;;;;19.13;7.85;;;8.20;99.90;;;;;;5032755;28;20017;-52
2024/03/03 04:21:52;;;;;;;19.38;8.75;;;8.20;99.90;;;;;;5032616;28;20490;-53
2024/03/03 04:24:17;;;;;;;17.48;7.63;;;8.30;99.90;;;;;;5032458;28;20021;-57
2024/03/03 04:26:43;;;;;;;19.58;8.00;;;8.30;99.90;;;;;;5032521;28;20030;-55
2024/03/03 04:29:09;;;;;;;18.95;7.97;;;8.50;99.90;;;;;;5032135;28;20487;-55
2024/03/03 04:31:42;;;;;;;15.32;7.93;;;8.50;99.90;;;;;;5032871;28;20040;-56
2024/03/03 04:34:08;;;;;;;19.50;8.40;;;8.40;99.90;;;;;;5032302;28;20036;-56
2024/03/03 04:36:33;;;;;;;15.73;7.72;;;8.50;99.90;;;;;;5032265;28;20403;-54
2024/03/03 04:38:59;;;;;;;14.95;7.15;;;8.50;99.90;;;;;;5032208;28;20525;-53
2024/03/03 04:41:24;;;;;;;14.07;7.05;;;8.50;99.90;;;;;;5032326;28;20101;-55
2024/03/03 04:43:50;;;;;;;15.77;6.80;;;8.50;99.90;;;;;;5032499;28;20029;-55
2024/03/03 04:46:15;;;;;;;16.95;7.82;;;8.60;99.90;;;;;;5032535;28;20049;-57
2024/03/03 04:48:41;;;;;;;14.40;7.28;;;8.50;99.90;;;;;;5032089;28;20029;-56
2024/03/03 04:51:07;;;;;;;19.67;8.15;;;8.50;99.90;;;;;;5032442;28;20506;-54
2024/03/03 04:53:33;;;;;;;16.25;8.07;;;8.50;99.90;;;;;;5031816;28;20100;-53
2024/03/03 04:55:59;;;;;;;14.70;7.57;;;8.40;99.90;;;;;;5031994;28;20030;-56
2024/03/03 04:58:24;;;;;;;16.85;7.30;;;8.40;99.90;;;;;;5032019;28;20418;-54
2024/03/03 05:00:50;;;;;;;16.60;8.75;;;8.30;99.90;;;;;;5032059;28;20395;-55
2024/03/03 05:03:15;;;;;;;15.88;7.80;;;8.30;99.90;;;;;;5031866;28;20395;-54
2024/03/03 05:05:41;;;;;;;20.48;8.77;;;8.40;99.90;;;;;;5031530;28;20018;-57
2024/03/03 05:08:06;;;;;;;17.10;6.55;;;8.40;99.90;;;;;;5031536;28;20026;-56
2024/03/03 05:10:32;;;;;;;15.90;7.93;;;8.40;99.90;;;;;;5031662;28;20034;-56
2024/03/03 05:12:57;;;;;;;13.43;7.97;;;8.40;99.90;;;;;;5031469;28;20526;-57
2024/03/03 05:15:23;;;;;;;15.75;8.63;;;8.50;99.90;;;;;;5030899;28;20068;-54
2024/03/03 05:17:48;;;;;;;14.88;7.45;;;8.50;99.90;;;;;;5031465;28;20120;-57
2024/03/03 05:20:14;;;;;;;17.52;9.02;;;8.50;99.90;;;;;;5031460;28;20039;-57
2024/03/03 05:22:40;;;;;;;20.50;8.57;;;8.50;99.90;;;;;;5031528;28;20072;-54
2024/03/03 05:25:06;;;;;;;19.25;7.55;;;8.50;99.90;;;;;;5031437;28;20100;-56
2024/03/03 05:27:32;;;;;;;13.90;7.38;;;8.50;99.90;;;;;;5031722;28;20112;-53
2024/03/03 05:29:58;;;;;;;17.42;7.15;;;8.40;99.90;;;;;;5031359;28;20108;-53
2024/03/03 05:32:24;;;;;;;15.50;8.02;;;8.30;99.90;;;;;;5031179;28;20363;-53
2024/03/03 05:34:49;;;;;;;17.80;8.05;;;8.20;99.90;;;;;;5031292;28;20030;-55
2024/03/03 05:37:15;;;;;;;15.27;7.85;;;8.20;99.90;;;;;;5031307;28;20034;-54
2024/03/03 05:39:41;;;;;;;21.73;7.15;;;8.20;99.90;;;;;;5031307;28;20364;-56
2024/03/03 05:42:11;;;;;;;13.63;7.65;;;8.20;99.90;;;;;;5031132;28;20030;-55
2024/03/03 05:44:37;;;;;;;14.20;7.60;;;8.10;99.90;;;;;;5031410;28;20040;-52
2024/03/03 05:47:02;;;;;;;17.10;8.23;;;8.00;99.90;;;;;;5031253;28;20496;-55
2024/03/03 05:49:28;;;;;;;17.10;8.07;;;8.00;99.90;;;;;;5031172;28;20431;-55
2024/03/03 05:51:54;;;;;;;16.90;7.18;;;8.00;99.90;;;;;;5031182;28;20117;-57
2024/03/03 05:54:19;;;;;;;13.77;6.88;;;8.00;99.90;;;;;;5030805;28;20025;-57
2024/03/03 05:56:45;;;;;;;17.95;8.77;;;8.00;99.90;;;;;;5030962;28;20029;-54
2024/03/03 05:59:14;;;;;;;12.45;7.03;;;7.90;99.90;;;;;;5031180;28;20063;-55
2024/03/03 06:01:48;;;;;;;16.00;7.63;;;7.80;99.90;;;;;;5031123;28;20025;-54
2024/03/03 06:04:15;;;;;;;19.65;7.88;;;7.80;99.90;;;;;;5030727;28;20080;-55
2024/03/03 06:06:40;;;;;;;15.77;7.60;;;7.70;99.90;;;;;;5031331;28;20089;-55
2024/03/03 06:09:08;;;;;;;16.35;8.30;;;7.60;99.90;;;;;;5030788;28;20053;-56
2024/03/03 06:11:34;;;;;;;17.33;7.78;;;7.60;99.90;;;;;;5031123;28;20511;-55
2024/03/03 06:13:59;;;;;;;12.73;6.93;;;7.60;99.90;;;;;;5030765;28;20037;-54
2024/03/03 06:16:25;;;;;;;16.88;8.13;;;7.60;99.90;;;;;;5030606;28;20033;-54
2024/03/03 06:18:51;;;;;;;20.67;9.23;;;7.60;99.90;;;;;;5030879;28;20022;-57
2024/03/03 06:21:16;;;;;;;15.48;7.68;;;7.70;99.90;;;;;;5030842;28;20025;-56
2024/03/03 06:23:42;;;;;;;18.73;9.10;;;7.90;99.90;;;;;;5030905;28;20021;-56
2024/03/03 06:26:07;;;;;;;13.48;6.80;;;8.00;99.90;;;;;;5031032;28;20037;-53
2024/03/03 06:28:33;;;;;;;16.33;7.28;;;8.00;99.90;;;;;;5034986;28;20030;-56
2024/03/03 06:31:01;;;;;;;18.92;8.23;;;8.10;99.90;;;;;;5034748;28;20087;-57
2024/03/03 06:33:27;;;;;;;13.15;6.88;;;8.10;99.90;;;;;;5034949;28;20032;-57
2024/03/03 06:35:53;;;;;;;16.52;7.38;;;8.20;99.90;;;;;;5034637;28;20052;-56
2024/03/03 06:38:18;;;;;;;15.95;7.78;;;8.20;99.90;;;;;;5034476;28;20473;-57
2024/03/03 06:40:44;;;;;;;15.88;7.93;;;8.30;99.90;;;;;;5034582;28;20035;-55
2024/03/03 06:43:09;;;;;;;15.63;7.85;;;8.40;99.90;;;;;;5034754;28;20027;-53
2024/03/03 06:45:35;;;;;;;15.77;7.75;;;8.40;99.90;;;;;;5034362;28;20021;-54
2024/03/03 06:48:00;;;;;;;14.40;7.50;;;8.50;99.90;;;;;;5034708;28;20025;-56
2024/03/03 06:50:26;;;;;;;15.68;7.63;;;8.50;99.90;;;;;;5034538;28;20489;-53
2024/03/03 06:52:51;;;;;;;15.07;7.47;;;8.50;99.90;;;;;;5034382;28;20053;-57
2024/03/03 06:55:17;;;;;;;14.07;7.57;;;8.50;99.90;;;;;;5034159;28;20273;-57
2024/03/03 06:57:42;;;;;;;13.02;6.80;;;8.60;99.90;;;;;;5033943;28;20026;-57
2024/03/03 07:00:09;;;;;;;14.43;6.95;;;8.70;99.90;;;;;;5034304;28;20029;-56
2024/03/03 07:05:18;;;;;;;;;;;8.70;99.90;;;;;;5044828;23;20119;-49
2024/03/03 07:07:44;;;;;;;13.90;6.63;;;8.70;99.90;;;;;;5029743;28;19913;-49
2024/03/03 07:10:09;;;;;;;14.27;6.90;;;8.80;99.90;;;;;;5033156;28;20458;-49
2024/03/03 07:12:35;;;;;;;16.30;7.88;;;8.90;99.90;;;;;;5030821;28;20072;-48
2024/03/03 07:15:01;;;;;;;20.52;8.07;;;8.90;99.90;;;;;;5028209;28;20107;-49
2024/03/03 07:17:26;;;;;;;15.77;7.28;;;9.00;99.90;;;;;;5021765;28;20529;-51
2024/03/03 07:19:52;;;;;;;14.75;7.43;;;9.10;99.90;;;;;;5021180;28;20088;-49
2024/03/03 07:22:17;;;;;;;21.23;8.25;;;9.20;99.90;;;;;;5025583;28;20048;-52
2024/03/03 07:24:43;;;;;;;17.60;8.50;;;9.20;99.90;;;;;;5025848;28;20029;-52
2024/03/03 07:27:08;;;;;;;18.40;7.95;;;9.30;99.90;;;;;;5026631;28;20060;-51
2024/03/03 07:29:35;;;;;;;14.65;7.07;;;9.30;99.90;;;;;;5027838;28;20499;-52
2024/03/03 07:32:02;;;;;;;14.65;7.22;;;9.30;99.90;;;;;;5019306;28;20033;-52
2024/03/03 07:34:28;;;;;;;13.13;6.70;;;9.40;99.90;;;;;;5024005;28;20398;-50
2024/03/03 07:36:53;;;;;;;14.35;7.18;;;9.40;99.90;;;;;;5006170;28;20034;-54
2024/03/03 07:39:20;;;;;;;13.70;7.22;;;9.50;99.90;;;;;;5025656;28;20364;-50
2024/03/03 07:41:45;;;;;;;15.80;7.05;;;9.50;99.90;;;;;;5020812;28;20070;-52
2024/03/03 07:44:11;;;;;;;17.55;7.85;;;9.50;99.90;;;;;;5025357;28;20049;-50
2024/03/03 07:46:37;;;;;;;14.40;7.28;;;9.50;99.90;;;;;;5024706;28;20507;-50
2024/03/03 07:49:03;;;;;;;17.70;7.45;;;9.60;99.90;;;;;;5025514;28;20029;-50
2024/03/03 07:51:28;;;;;;;15.25;7.82;;;9.60;99.90;;;;;;5010193;28;20045;-50
2024/03/03 07:53:54;;;;;;;23.33;8.05;;;9.60;99.90;;;;;;5028185;28;20029;-53
2024/03/03 07:56:20;;;;;;;17.08;7.45;;;9.70;99.90;;;;;;5020532;28;20440;-50
2024/03/03 07:58:46;;;;;;;13.60;7.13;;;9.70;99.90;;;;;;5013413;28;20133;-49
2024/03/03 08:01:11;;;;;;;16.00;7.90;;;9.80;99.90;;;;;;5016586;28;20099;-52
2024/03/03 08:03:37;;;;;;;16.65;7.97;;;9.90;99.90;;;;;;5016463;28;20077;-49
2024/03/03 08:06:02;;;;;;;12.07;6.38;;;9.90;99.90;;;;;;5012408;28;20041;-52
2024/03/03 08:08:28;;;;;;;13.10;7.13;;;10.00;99.90;;;;;;5016387;28;20045;-50
2024/03/03 08:10:54;;;;;;;19.10;8.30;;;10.10;99.90;;;;;;5017214;28;20109;-49
2024/03/03 08:13:19;;;;;;;12.07;6.47;;;10.20;99.90;;;;;;5016655;28;20476;-48
2024/03/03 08:15:45;;;;;;;14.75;7.53;;;10.30;99.90;;;;;;5017613;28;20025;-48
2024/03/03 08:18:10;;;;;;;17.17;8.07;;;10.40;99.90;;;;;;5022227;28;20029;-49
2024/03/03 08:20:36;;;;;;;15.73;7.50;;;10.40;99.90;;;;;;5020994;28;20025;-49
2024/03/03 08:23:01;;;;;;;13.00;6.57;;;10.50;99.90;;;;;;5023736;28;20407;-53
2024/03/03 08:25:27;;;;;;;15.63;6.97;;;10.60;99.90;;;;;;5021975;28;20044;-49
2024/03/03 08:28:01;;;;;;;16.27;8.35;;;10.80;99.90;;;;;;5023913;28;20057;-48
2024/03/03 08:30:26;;;;;;;13.85;7.13;;;10.90;99.90;;;;;;5025487;28;20829;-48
2024/03/03 08:32:52;;;;;;;15.68;8.23;;;11.00;99.90;;;;;;5019457;28;20026;-53
2024/03/03 08:35:17;;;;;;;14.65;7.55;;;11.10;99.90;;;;;;5023551;28;20065;-50
2024/03/03 08:37:45;;;;;;;14.98;6.80;;;11.10;99.90;;;;;;5022483;28;20136;-47
2024/03/03 08:40:11;;;;;;;15.10;7.18;;;11.30;99.90;;;;;;5003831;28;20064;-48
2024/03/03 08:42:37;;;;;;;13.88;7.18;;;11.50;99.90;;;;;;5024382;28;20029;-51
2024/03/03 08:45:03;;;;;;;14.68;7.82;;;11.60;99.90;;;;;;5021089;28;20415;-50
2024/03/03 08:47:28;;;;;;;18.35;8.13;;;11.80;99.90;;;;;;5022970;28;20433;-53
2024/03/03 08:49:54;;;;;;;15.10;8.10;;;11.80;99.90;;;;;;5017580;28;20038;-48
2024/03/03 08:52:19;;;;;;;15.43;7.78;;;11.90;99.90;;;;;;5016351;28;20033;-51
2024/03/03 08:54:45;;;;;;;16.58;8.05;;;12.10;99.90;;;;;;5019559;28;20491;-48
2024/03/03 08:57:10;;;;;;;14.88;7.60;;;12.20;99.90;;;;;;5020610;28;20540;-52
2024/03/03 08:59:36;;;;;;;15.18;7.75;;;12.30;99.90;;;;;;5023349;28;20030;-47
2024/03/03 09:02:02;;;;;;;14.05;7.25;;;12.40;99.90;;;;;;5023184;28;20825;-50
2024/03/03 09:04:28;;;;;;;13.65;7.78;;;12.50;99.90;;;;;;5025401;28;20395;-49
2024/03/03 09:06:53;;;;;;;17.08;7.90;;;12.80;99.90;;;;;;5026149;28;20083;-52
2024/03/03 09:09:19;;;;;;;16.92;7.35;;;12.90;99.90;;;;;;5027446;28;20030;-51
2024/03/03 09:11:45;;;;;;;13.20;7.32;;;12.90;99.90;;;;;;5025568;28;20640;-49
2024/03/03 09:14:11;;;;;;;13.15;6.93;;;12.80;99.90;;;;;;5024673;28;20040;-52
2024/03/03 09:16:37;;;;;;;14.40;7.68;;;12.80;99.90;;;;;;5023997;28;20088;-50
2024/03/03 09:19:03;;;;;;;14.07;8.02;;;12.80;99.90;;;;;;5023932;28;20030;-51
2024/03/03 09:21:28;;;;;;;17.98;8.20;;;13.00;99.90;;;;;;5023474;28;20029;-53
2024/03/03 09:23:54;;;;;;;16.17;8.10;;;13.10;99.90;;;;;;5021285;28;20021;-55
2024/03/03 09:26:19;;;;;;;16.92;8.10;;;13.50;99.90;;;;;;5025716;28;20029;-49
2024/03/03 09:28:45;;;;;;;14.63;7.18;;;13.50;99.90;;;;;;5021122;28;20037;-52
2024/03/03 09:31:10;;;;;;;14.45;8.50;;;13.90;99.90;;;;;;5022714;28;20091;-51
2024/03/03 09:33:38;;;;;;;17.83;8.23;;;14.30;99.90;;;;;;5023069;28;20037;-48
2024/03/03 09:36:05;;;;;;;13.90;8.07;;;14.40;99.90;;;;;;5018428;28;20069;-50
2024/03/03 09:38:31;;;;;;;12.38;7.63;;;14.50;99.90;;;;;;5018379;28;20091;-52
2024/03/03 09:40:56;;;;;;;15.30;8.25;;;14.40;99.90;;;;;;5020894;28;20499;-51
2024/03/03 09:43:27;;;;;;;16.20;8.68;;;14.80;99.90;;;;;;5017828;28;21040;-48
2024/03/03 09:45:52;;;;;;;12.23;7.45;;;14.50;99.90;;;;;;5020143;28;20057;-50
2024/03/03 09:48:20;;;;;;;14.65;7.78;;;14.60;99.90;;;;;;5016711;28;20076;-53
2024/03/03 09:50:50;;;;;;;18.10;8.45;;;14.50;99.90;;;;;;5018342;28;20101;-49
2024/03/03 09:53:16;;;;;;;13.63;8.88;;;14.70;99.90;;;;;;5007353;28;20116;-50
2024/03/03 09:55:42;;;;;;;13.63;8.10;;;15.00;99.90;;;;;;5020184;28;20037;-51
2024/03/03 09:58:09;;;;;;;15.25;8.70;;;15.30;99.90;;;;;;5017468;28;20057;-51
2024/03/03 10:00:35;;;;;;;13.00;8.13;;;15.80;99.90;;;;;;5008566;28;20045;-51
2024/03/03 10:03:02;;;;;;;14.00;8.55;;;16.00;99.90;;;;;;5022007;28;20029;-52
2024/03/03 10:05:30;;;;;;;13.10;7.82;;;16.10;99.90;;;;;;5016423;28;20070;-51
2024/03/03 10:08:02;;;;;;;11.00;7.68;;;16.40;99.90;;;;;;5023927;28;20040;-54
2024/03/03 10:10:35;;;;;;;12.38;7.70;;;16.80;99.90;;;;;;5024154;28;20030;-48
2024/03/03 10:13:02;;;;;;;;;;;17.00;99.90;;;;;;5019474;28;20740;-53
2024/03/03 10:15:29;;;;;;;15.38;7.15;;;17.10;99.90;;;;;;5018674;28;19916;-50
2024/03/03 10:17:55;;;;;;;13.95;7.82;;;16.60;99.90;;;;;;5026260;28;20029;-49
2024/03/03 10:20:21;;;;;;;13.98;8.70;;;16.40;99.90;;;;;;5024622;28;20167;-53
2024/03/03 10:22:46;;;;;;;16.00;8.27;;;15.90;99.90;;;;;;5018922;28;20066;-54
2024/03/03 10:25:16;;;;;;;11.45;7.22;;;16.10;99.90;;;;;;5024685;28;20021;-51
2024/03/03 10:27:43;;;;;;;12.77;8.50;;;15.90;99.90;;;;;;5029013;28;20061;-52
2024/03/03 10:30:09;;;;;;;16.23;8.02;;;15.60;99.90;;;;;;5024957;28;20037;-50
2024/03/03 10:32:46;;;;;;;15.02;8.68;;;15.30;99.90;;;;;;5024060;28;20598;-49
2024/03/03 10:35:14;;;;;;;17.13;8.13;;;15.30;99.90;;;;;;5022927;28;20457;-48
2024/03/03 10:37:52;;;;;;;17.77;8.57;;;15.10;99.90;;;;;;5025657;28;20072;-48
2024/03/03 10:40:20;;;;;;;15.63;8.80;;;15.10;99.90;;;;;;5022228;28;20063;-48
2024/03/03 10:42:45;;;;;;;12.88;7.32;;;14.90;99.90;;;;;;5023665;28;20029;-51
2024/03/03 10:45:11;;;;;;;14.43;7.95;;;14.90;99.90;;;;;;5025739;28;20507;-50
2024/03/03 10:47:37;;;;;;;16.73;9.38;;;14.90;99.90;;;;;;5005895;28;20049;-49
2024/03/03 10:50:13;;;;;;;18.35;8.63;;;14.80;99.90;;;;;;5023648;28;20048;-53
2024/03/03 10:52:39;;;;;;;17.83;7.88;;;14.80;99.90;;;;;;5008481;28;20029;-51
2024/03/03 10:55:08;;;;;;;14.45;8.00;;;14.90;99.90;;;;;;5023379;28;20385;-50
2024/03/03 10:57:35;;;;;;;12.93;7.18;;;14.90;99.90;;;;;;5022767;28;20168;-52
2024/03/03 11:00:02;;;;;;;14.35;8.07;;;14.70;99.90;;;;;;5026910;28;20072;-53
2024/03/03 11:02:32;;;;;;;13.27;7.03;;;14.80;99.90;;;;;;5020998;28;20029;-51
2024/03/03 11:05:00;;;;;;;15.40;6.88;;;14.80;99.90;;;;;;5019585;28;20040;-50
2024/03/03 11:07:29;;;;;;;15.80;7.72;;;15.00;99.90;;;;;;5024334;28;20030;-52
2024/03/03 11:09:56;;;;;;;14.63;7.30;;;15.00;99.90;;;;;;5022426;28;20029;-52
2024/03/03 11:12:25;;;;;;;17.40;7.55;;;14.90;99.90;;;;;;5019395;28;20439;-51
2024/03/03 11:14:56;;;;;;;14.68;7.88;;;14.80;99.90;;;;;;5022223;28;20395;-53
2024/03/03 11:17:25;;;;;;;18.70;8.82;;;14.90;99.90;;;;;;5026562;28;20053;-51
2024/03/03 11:19:51;;;;;;;11.95;6.95;;;15.00;99.90;;;;;;5023214;28;20476;-53
2024/03/03 11:22:21;;;;;;;14.90;8.25;;;14.90;99.90;;;;;;5023437;28;20032;-52
2024/03/03 11:24:54;;;;;;;13.07;7.38;;;14.90;99.90;;;;;;5023847;28;20028;-52
2024/03/03 11:27:26;;;;;;;14.60;7.35;;;14.90;99.90;;;;;;5022178;28;20034;-54
2024/03/03 11:29:52;;;;;;;14.30;7.43;;;14.90;99.90;;;;;;5018992;28;20415;-54
2024/03/03 11:32:20;;;;;;;13.18;7.20;;;14.80;99.90;;;;;;5025580;28;20108;-53
2024/03/03 11:34:46;;;;;;;12.70;7.10;;;14.80;99.90;;;;;;5020105;28;20025;-52
2024/03/03 11:37:14;;;;;;;12.32;6.88;;;14.70;99.90;;;;;;5027682;28;20044;-50
2024/03/03 11:40:02;;;;;;;14.20;6.95;;;14.80;99.90;;;;;;5018636;28;20391;-55
2024/03/03 11:42:39;;;;;;;10.48;5.95;;;14.70;99.90;;;;;;5022999;28;20032;-51
2024/03/03 11:45:06;;;;;;;10.05;6.15;;;14.80;99.90;;;;;;5019534;28;20055;-55
2024/03/03 11:47:33;;;;;;;12.82;7.28;;;14.90;99.90;;;;;;5024693;28;20564;-49
2024/03/03 11:50:00;;;;;;;13.50;6.38;;;14.90;99.90;;;;;;5027755;28;20407;-47
2024/03/03 11:52:52;;;;;;;12.55;5.60;;;14.90;99.90;;;;;;5023880;28;20412;-50
2024/03/03 11:55:23;;;;;;;10.18;6.07;;;14.90;99.90;;;;;;5023602;28;20025;-49
2024/03/03 11:57:54;;;;;;;9.82;5.80;;;14.90;99.90;;;;;;5023680;28;20033;-49
2024/03/03 12:00:24;;;;;;;10.88;5.80;;;15.00;99.90;;;;;;5017601;28;20022;-55
2024/03/03 12:02:51;;;;;;;13.35;5.57;;;15.10;99.90;;;;;;5022047;28;20025;-50
2024/03/03 12:05:16;;;;;;;12.15;6.20;;;15.20;99.90;;;;;;5015139;28;20041;-50
2024/03/03 12:07:44;;;;;;;13.55;5.93;;;15.20;99.90;;;;;;5020768;28;20108;-53
2024/03/03 12:10:21;;;;;;;10.18;5.85;;;15.30;99.90;;;;;;5028673;28;20079;-53
2024/03/03 12:12:48;;;;;;;11.25;4.82;;;15.20;99.90;;;;;;5020535;28;20030;-53
2024/03/03 12:15:17;;;;;;;9.02;4.88;;;15.10;99.90;;;;;;5027352;28;20037;-49
2024/03/03 12:17:44;;;;;;;8.77;5.25;;;15.10;99.90;;;;;;5024327;28;20040;-49
2024/03/03 12:20:11;;;;;;;11.88;5.28;;;15.10;99.90;;;;;;5023753;28;20357;-54
2024/03/03 12:22:37;;;;;;;7.55;5.05;;;15.10;99.90;;;;;;5023116;28;20079;-49
2024/03/03 12:25:03;;;;;;;10.25;5.35;;;15.10;99.90;;;;;;5025726;28;20029;-50
2024/03/03 12:27:28;;;;;;;8.88;5.18;;;15.20;99.90;;;;;;5026611;28;20048;-52
2024/03/03 12:30:03;;;;;;;8.85;4.65;;;15.20;99.90;;;;;;5024119;28;20034;-50
2024/03/03 12:32:29;;;;;;;7.97;4.55;;;15.10;99.90;;;;;;5023615;28;20060;-53
2024/03/03 12:34:58;;;;;;;9.10;4.28;;;15.10;99.90;;;;;;5025583;28;20475;-49
2024/03/03 12:37:24;;;;;;;6.72;4.07;;;15.10;99.90;;;;;;5027319;28;20120;-50
2024/03/03 12:39:51;;;;;;;9.23;4.63;;;15.10;99.90;;;;;;5022384;28;20073;-51
2024/03/03 12:42:17;;;;;;;7.63;4.68;;;15.20;99.90;;;;;;5025250;28;20025;-49
2024/03/03 12:44:43;;;;;;;9.40;4.60;;;15.30;99.90;;;;;;5025884;28;20036;-52